sensor_id;sensor_type;location;lat;lon;timestamp;pressure;altitude;pressure_sealevel;temperature;humidity
33554;BME280;19885;42.208;24.952;2023-05-08T00:00:17;100131.66;;;15.11;65.20
33554;BME280;19885;42.208;24.952;2023-05-08T00:02:42;100054.22;;;14.53;64.86
33554;BME280;19885;42.208;24.952;2023-05-08T00:05:08;100125.63;;;14.97;66.28
33554;BME280;19885;42.208;24.952;2023-05-08T00:07:35;100103.16;;;14.55;67.54
33554;BME280;19885;42.208;24.952;2023-05-08T00:10:02;100119.72;;;14.65;67.36
33554;BME280;19885;42.208;24.952;2023-05-08T00:12:27;100051.72;;;14.35;68.00
33554;BME280;19885;42.208;24.952;2023-05-08T00:14:53;100104.06;;;14.50;68.47
33554;BME280;19885;42.208;24.952;2023-05-08T00:17:18;100089.28;;;14.40;68.82
33554;BME280;19885;42.208;24.952;2023-05-08T00:19:44;100030.00;;;13.99;67.50
33554;BME280;19885;42.208;24.952;2023-05-08T00:22:09;100113.69;;;14.51;69.01
33554;BME280;19885;42.208;24.952;2023-05-08T00:24:35;100105.91;;;14.29;70.48
33554;BME280;19885;42.208;24.952;2023-05-08T00:27:00;100111.19;;;14.11;71.05
33554;BME280;19885;42.208;24.952;2023-05-08T00:29:25;100106.81;;;14.18;69.96
33554;BME280;19885;42.208;24.952;2023-05-08T00:31:51;100116.38;;;14.26;70.81
33554;BME280;19885;42.208;24.952;2023-05-08T00:34:16;100111.16;;;14.23;71.58
33554;BME280;19885;42.208;24.952;2023-05-08T00:36:42;100109.47;;;14.12;70.98
33554;BME280;19885;42.208;24.952;2023-05-08T00:39:07;100111.22;;;13.99;70.43
33554;BME280;19885;42.208;24.952;2023-05-08T00:41:33;100112.13;;;14.06;69.90
33554;BME280;19885;42.208;24.952;2023-05-08T00:43:58;100114.69;;;14.12;71.83
33554;BME280;19885;42.208;24.952;2023-05-08T00:46:24;100117.31;;;14.12;71.71
33554;BME280;19885;42.208;24.952;2023-05-08T00:48:50;100111.22;;;14.02;71.79
33554;BME280;19885;42.208;24.952;2023-05-08T00:51:15;100113.91;;;13.87;72.59
33554;BME280;19885;42.208;24.952;2023-05-08T00:53:42;100106.91;;;13.94;72.02
33554;BME280;19885;42.208;24.952;2023-05-08T00:56:10;100038.88;;;13.62;71.12
33554;BME280;19885;42.208;24.952;2023-05-08T00:58:37;100132.25;;;13.87;72.74
33554;BME280;19885;42.208;24.952;2023-05-08T01:01:03;100135.75;;;13.88;72.69
33554;BME280;19885;42.208;24.952;2023-05-08T01:03:29;100124.38;;;13.84;72.47
33554;BME280;19885;42.208;24.952;2023-05-08T01:05:56;100128.75;;;13.82;73.62
33554;BME280;19885;42.208;24.952;2023-05-08T01:08:22;100134.00;;;13.85;71.59
33554;BME280;19885;42.208;24.952;2023-05-08T01:11:21;100140.06;;;13.95;72.69
33554;BME280;19885;42.208;24.952;2023-05-08T01:14:18;100140.97;;;13.88;71.53
33554;BME280;19885;42.208;24.952;2023-05-08T01:17:22;100135.75;;;13.92;71.03
33554;BME280;19885;42.208;24.952;2023-05-08T01:20:05;100141.84;;;13.91;72.90
33554;BME280;19885;42.208;24.952;2023-05-08T01:26:16;100135.78;;;13.74;71.80
33554;BME280;19885;42.208;24.952;2023-05-08T01:34:31;100143.59;;;13.77;72.53
33554;BME280;19885;42.208;24.952;2023-05-08T01:37:00;100144.50;;;13.76;71.93
33554;BME280;19885;42.208;24.952;2023-05-08T01:39:43;100141.00;;;13.71;71.26
33554;BME280;19885;42.208;24.952;2023-05-08T01:42:18;100144.47;;;13.70;70.75
33554;BME280;19885;42.208;24.952;2023-05-08T01:44:52;100139.25;;;13.61;70.68
33554;BME280;19885;42.208;24.952;2023-05-08T01:47:19;100143.66;;;13.57;71.25
33554;BME280;19885;42.208;24.952;2023-05-08T01:49:51;100148.00;;;13.57;71.38
33554;BME280;19885;42.208;24.952;2023-05-08T01:52:31;100152.38;;;13.52;71.65
33554;BME280;19885;42.208;24.952;2023-05-08T01:55:00;100145.38;;;13.58;70.99
33554;BME280;19885;42.208;24.952;2023-05-08T01:57:28;100149.78;;;13.44;71.23
33554;BME280;19885;42.208;24.952;2023-05-08T01:59:56;100151.50;;;13.41;69.76
33554;BME280;19885;42.208;24.952;2023-05-08T02:02:25;100088.69;;;13.12;68.30
33554;BME280;19885;42.208;24.952;2023-05-08T02:04:53;100142.75;;;13.54;67.34
33554;BME280;19885;42.208;24.952;2023-05-08T02:07:21;100152.38;;;13.72;66.86
33554;BME280;19885;42.208;24.952;2023-05-08T02:09:47;100154.94;;;13.79;68.11
33554;BME280;19885;42.208;24.952;2023-05-08T02:12:15;100154.94;;;13.79;68.32
33554;BME280;19885;42.208;24.952;2023-05-08T02:14:43;100147.13;;;13.76;70.45
33554;BME280;19885;42.208;24.952;2023-05-08T02:17:10;100119.19;;;13.65;70.73
33554;BME280;19885;42.208;24.952;2023-05-08T02:19:38;100134.00;;;13.70;70.10
33554;BME280;19885;42.208;24.952;2023-05-08T02:22:06;100071.25;;;13.13;72.13
33554;BME280;19885;42.208;24.952;2023-05-08T02:24:33;100138.41;;;13.26;72.91
33554;BME280;19885;42.208;24.952;2023-05-08T02:27:00;100144.53;;;13.40;72.63
33554;BME280;19885;42.208;24.952;2023-05-08T02:29:27;100150.63;;;13.52;72.39
33554;BME280;19885;42.208;24.952;2023-05-08T02:31:53;100157.59;;;13.43;72.45
33554;BME280;19885;42.208;24.952;2023-05-08T02:34:22;100148.88;;;13.21;73.65
33554;BME280;19885;42.208;24.952;2023-05-08T02:36:49;100148.88;;;13.30;73.72
33554;BME280;19885;42.208;24.952;2023-05-08T02:39:16;100154.09;;;13.29;73.65
33554;BME280;19885;42.208;24.952;2023-05-08T02:41:43;100130.56;;;13.23;73.22
33554;BME280;19885;42.208;24.952;2023-05-08T02:44:10;100156.72;;;13.32;72.46
33554;BME280;19885;42.208;24.952;2023-05-08T02:49:14;100159.34;;;13.14;74.75
33554;BME280;19885;42.208;24.952;2023-05-08T02:52:06;100163.72;;;13.21;74.63
33554;BME280;19885;42.208;24.952;2023-05-08T02:54:38;100155.84;;;13.06;76.27
33554;BME280;19885;42.208;24.952;2023-05-08T03:00:40;100159.28;;;12.94;75.58
33554;BME280;19885;42.208;24.952;2023-05-08T03:03:18;100157.50;;;12.79;77.12
33554;BME280;19885;42.208;24.952;2023-05-08T03:05:51;100160.97;;;12.65;77.01
33554;BME280;19885;42.208;24.952;2023-05-08T03:08:23;100147.88;;;12.72;76.36
33554;BME280;19885;42.208;24.952;2023-05-08T03:10:51;100143.56;;;12.82;75.97
33554;BME280;19885;42.208;24.952;2023-05-08T03:13:19;100144.44;;;12.87;75.91
33554;BME280;19885;42.208;24.952;2023-05-08T03:16:21;100143.56;;;12.88;77.51
33554;BME280;19885;42.208;24.952;2023-05-08T03:18:46;100098.16;;;12.54;75.83
33554;BME280;19885;42.208;24.952;2023-05-08T03:21:17;100149.66;;;12.79;76.64
33554;BME280;19885;42.208;24.952;2023-05-08T03:23:45;100147.94;;;12.84;75.64
33554;BME280;19885;42.208;24.952;2023-05-08T03:26:16;100142.69;;;12.75;78.01
33554;BME280;19885;42.208;24.952;2023-05-08T03:28:45;100158.41;;;13.04;76.58
33554;BME280;19885;42.208;24.952;2023-05-08T03:31:12;100160.19;;;13.04;76.72
33554;BME280;19885;42.208;24.952;2023-05-08T03:33:42;100167.16;;;13.05;76.27
33554;BME280;19885;42.208;24.952;2023-05-08T03:36:08;100163.66;;;13.01;76.62
33554;BME280;19885;42.208;24.952;2023-05-08T03:38:34;100171.53;;;13.13;76.06
33554;BME280;19885;42.208;24.952;2023-05-08T03:41:00;100173.28;;;13.05;77.17
33554;BME280;19885;42.208;24.952;2023-05-08T03:43:27;100161.88;;;12.86;77.28
33554;BME280;19885;42.208;24.952;2023-05-08T03:45:54;100190.69;;;12.99;76.65
33554;BME280;19885;42.208;24.952;2023-05-08T03:48:21;100177.59;;;13.05;75.88
33554;BME280;19885;42.208;24.952;2023-05-08T03:50:48;100177.66;;;13.17;75.67
33554;BME280;19885;42.208;24.952;2023-05-08T03:53:15;100181.16;;;13.19;75.55
33554;BME280;19885;42.208;24.952;2023-05-08T03:55:40;100179.41;;;13.30;75.40
33554;BME280;19885;42.208;24.952;2023-05-08T04:01:03;100182.00;;;13.18;74.70
33554;BME280;19885;42.208;24.952;2023-05-08T04:06:24;100182.88;;;13.14;75.82
33554;BME280;19885;42.208;24.952;2023-05-08T04:09:57;100190.75;;;13.12;76.28
33554;BME280;19885;42.208;24.952;2023-05-08T04:12:35;100182.81;;;12.93;77.97
33554;BME280;19885;42.208;24.952;2023-05-08T04:15:18;100189.81;;;13.00;76.15
33554;BME280;19885;42.208;24.952;2023-05-08T04:17:58;100197.66;;;12.98;77.60
33554;BME280;19885;42.208;24.952;2023-05-08T04:20:26;100199.50;;;13.28;74.87
33554;BME280;19885;42.208;24.952;2023-05-08T04:22:53;100194.25;;;13.28;74.83
33554;BME280;19885;42.208;24.952;2023-05-08T04:25:20;100195.16;;;13.51;73.93
33554;BME280;19885;42.208;24.952;2023-05-08T04:27:46;100202.13;;;13.37;73.34
33554;BME280;19885;42.208;24.952;2023-05-08T04:30:13;100151.50;;;13.30;72.82
33554;BME280;19885;42.208;24.952;2023-05-08T04:32:40;100212.59;;;13.70;72.43
33554;BME280;19885;42.208;24.952;2023-05-08T04:35:06;100197.75;;;13.66;73.53
33554;BME280;19885;42.208;24.952;2023-05-08T04:37:32;100211.72;;;13.80;73.27
33554;BME280;19885;42.208;24.952;2023-05-08T04:39:58;100206.50;;;13.51;74.17
33554;BME280;19885;42.208;24.952;2023-05-08T04:42:24;100211.63;;;13.05;73.79
33554;BME280;19885;42.208;24.952;2023-05-08T04:44:53;100208.13;;;12.92;74.96
33554;BME280;19885;42.208;24.952;2023-05-08T04:47:19;100198.63;;;13.48;72.98
33554;BME280;19885;42.208;24.952;2023-05-08T04:49:45;100180.31;;;13.74;70.62
33554;BME280;19885;42.208;24.952;2023-05-08T04:52:11;100203.00;;;13.60;70.00
33554;BME280;19885;42.208;24.952;2023-05-08T04:54:36;100187.25;;;13.86;69.46
33554;BME280;19885;42.208;24.952;2023-05-08T04:57:02;100202.97;;;13.93;69.66
33554;BME280;19885;42.208;24.952;2023-05-08T04:59:28;100214.34;;;13.89;69.82
33554;BME280;19885;42.208;24.952;2023-05-08T05:01:55;100205.53;;;14.17;67.21
33554;BME280;19885;42.208;24.952;2023-05-08T05:04:21;100195.06;;;14.33;67.97
33554;BME280;19885;42.208;24.952;2023-05-08T05:06:46;100119.09;;;14.01;68.22
33554;BME280;19885;42.208;24.952;2023-05-08T05:09:12;100183.63;;;14.50;66.80
33554;BME280;19885;42.208;24.952;2023-05-08T05:11:37;100190.53;;;14.74;66.99
33554;BME280;19885;42.208;24.952;2023-05-08T05:14:03;100186.13;;;14.76;65.98
33554;BME280;19885;42.208;24.952;2023-05-08T05:16:28;100139.91;;;14.54;67.46
33554;BME280;19885;42.208;24.952;2023-05-08T05:18:54;100199.19;;;14.89;64.71
33554;BME280;19885;42.208;24.952;2023-05-08T05:21:20;100186.00;;;14.95;66.41
33554;BME280;19885;42.208;24.952;2023-05-08T05:23:45;100192.13;;;15.00;65.04
33554;BME280;19885;42.208;24.952;2023-05-08T05:26:11;100185.94;;;15.06;66.24
33554;BME280;19885;42.208;24.952;2023-05-08T05:28:36;100192.13;;;14.97;66.54
33554;BME280;19885;42.208;24.952;2023-05-08T05:31:02;100177.25;;;14.98;65.54
33554;BME280;19885;42.208;24.952;2023-05-08T05:33:27;100147.63;;;14.75;66.83
33554;BME280;19885;42.208;24.952;2023-05-08T05:35:53;100191.22;;;15.03;65.55
33554;BME280;19885;42.208;24.952;2023-05-08T05:38:18;100178.88;;;15.17;64.16
33554;BME280;19885;42.208;24.952;2023-05-08T05:40:44;100174.41;;;15.30;65.62
33554;BME280;19885;42.208;24.952;2023-05-08T05:43:10;100175.72;;;14.58;66.98
33554;BME280;19885;42.208;24.952;2023-05-08T05:45:35;100175.56;;;14.89;64.58
33554;BME280;19885;42.208;24.952;2023-05-08T05:48:01;100163.34;;;14.84;64.76
33554;BME280;19885;42.208;24.952;2023-05-08T05:50:27;100163.19;;;15.08;63.63
33554;BME280;19885;42.208;24.952;2023-05-08T05:52:53;100182.41;;;15.15;65.23
33554;BME280;19885;42.208;24.952;2023-05-08T05:55:19;100175.38;;;15.18;64.90
33554;BME280;19885;42.208;24.952;2023-05-08T05:57:44;100176.09;;;15.37;65.20
33554;BME280;19885;42.208;24.952;2023-05-08T06:00:10;100167.06;;;15.73;64.70
33554;BME280;19885;42.208;24.952;2023-05-08T06:02:36;100159.19;;;15.73;62.51
33554;BME280;19885;42.208;24.952;2023-05-08T06:05:03;100158.91;;;16.00;61.31
33554;BME280;19885;42.208;24.952;2023-05-08T06:07:29;100142.25;;;16.01;63.27
33554;BME280;19885;42.208;24.952;2023-05-08T06:09:54;100152.44;;;16.29;62.12
33554;BME280;19885;42.208;24.952;2023-05-08T06:12:20;100149.91;;;16.20;59.03
33554;BME280;19885;42.208;24.952;2023-05-08T06:14:47;100151.25;;;16.58;61.70
33554;BME280;19885;42.208;24.952;2023-05-08T06:17:12;100151.00;;;16.76;60.92
33554;BME280;19885;42.208;24.952;2023-05-08T06:19:38;100137.94;;;16.68;59.47
33554;BME280;19885;42.208;24.952;2023-05-08T06:22:03;100138.47;;;16.93;62.08
33554;BME280;19885;42.208;24.952;2023-05-08T06:24:29;100144.13;;;16.67;61.67
33554;BME280;19885;42.208;24.952;2023-05-08T06:26:54;100144.63;;;16.22;59.88
33554;BME280;19885;42.208;24.952;2023-05-08T06:29:20;100156.66;;;15.63;59.99
33554;BME280;19885;42.208;24.952;2023-05-08T06:31:46;100152.31;;;16.41;59.32
33554;BME280;19885;42.208;24.952;2023-05-08T06:34:12;100161.63;;;16.68;56.86
33554;BME280;19885;42.208;24.952;2023-05-08T06:36:37;100151.88;;;16.76;58.25
33554;BME280;19885;42.208;24.952;2023-05-08T06:39:03;100153.03;;;16.54;52.41
33554;BME280;19885;42.208;24.952;2023-05-08T06:41:30;100149.75;;;17.02;55.19
33554;BME280;19885;42.208;24.952;2023-05-08T06:43:55;100148.53;;;16.64;54.42
33554;BME280;19885;42.208;24.952;2023-05-08T06:46:21;100141.53;;;16.64;55.12
33554;BME280;19885;42.208;24.952;2023-05-08T06:48:46;100128.31;;;16.67;55.31
33554;BME280;19885;42.208;24.952;2023-05-08T06:51:12;100127.06;;;16.92;55.31
33554;BME280;19885;42.208;24.952;2023-05-08T06:53:37;100120.38;;;16.72;54.01
33554;BME280;19885;42.208;24.952;2023-05-08T06:56:03;100123.78;;;16.78;56.30
33554;BME280;19885;42.208;24.952;2023-05-08T06:58:28;100081.38;;;16.96;56.20
33554;BME280;19885;42.208;24.952;2023-05-08T07:00:58;100070.00;;;16.94;55.13
33554;BME280;19885;42.208;24.952;2023-05-08T07:03:26;100121.28;;;17.24;54.67
33554;BME280;19885;42.208;24.952;2023-05-08T07:05:52;100119.09;;;17.52;55.26
33554;BME280;19885;42.208;24.952;2023-05-08T07:08:17;100124.97;;;17.69;55.63
33554;BME280;19885;42.208;24.952;2023-05-08T07:10:43;100112.59;;;17.72;54.52
33554;BME280;19885;42.208;24.952;2023-05-08T07:13:08;100119.91;;;17.57;54.70
33554;BME280;19885;42.208;24.952;2023-05-08T07:15:34;100122.09;;;17.31;54.06
33554;BME280;19885;42.208;24.952;2023-05-08T07:17:59;100106.84;;;17.51;58.66
33554;BME280;19885;42.208;24.952;2023-05-08T07:20:25;100111.13;;;17.58;54.09
33554;BME280;19885;42.208;24.952;2023-05-08T07:22:51;100047.03;;;17.54;52.91
33554;BME280;19885;42.208;24.952;2023-05-08T07:25:16;100107.56;;;17.59;53.95
33554;BME280;19885;42.208;24.952;2023-05-08T07:27:42;100106.03;;;17.93;54.68
33554;BME280;19885;42.208;24.952;2023-05-08T07:30:08;100105.59;;;18.16;54.16
33554;BME280;19885;42.208;24.952;2023-05-08T07:32:34;100093.56;;;18.45;53.68
33554;BME280;19885;42.208;24.952;2023-05-08T07:35:01;100108.66;;;18.37;52.15
33554;BME280;19885;42.208;24.952;2023-05-08T07:37:27;100110.22;;;18.47;51.76
33554;BME280;19885;42.208;24.952;2023-05-08T07:39:53;100097.88;;;18.49;53.98
33554;BME280;19885;42.208;24.952;2023-05-08T07:42:19;100079.19;;;18.60;55.03
33554;BME280;19885;42.208;24.952;2023-05-08T07:44:45;100101.84;;;18.69;53.55
33554;BME280;19885;42.208;24.952;2023-05-08T07:47:11;100101.31;;;18.10;52.88
33554;BME280;19885;42.208;24.952;2023-05-08T07:49:36;100103.34;;;18.39;53.76
33554;BME280;19885;42.208;24.952;2023-05-08T07:52:02;100109.00;;;18.64;55.74
33554;BME280;19885;42.208;24.952;2023-05-08T07:54:27;100092.69;;;18.45;51.70
33554;BME280;19885;42.208;24.952;2023-05-08T07:56:53;100098.44;;;18.64;52.65
33554;BME280;19885;42.208;24.952;2023-05-08T07:59:18;100098.13;;;18.77;52.83
33554;BME280;19885;42.208;24.952;2023-05-08T08:01:44;100094.34;;;18.89;54.60
33554;BME280;19885;42.208;24.952;2023-05-08T08:04:12;100064.13;;;18.64;55.47
33554;BME280;19885;42.208;24.952;2023-05-08T08:06:38;100087.91;;;19.00;56.25
33554;BME280;19885;42.208;24.952;2023-05-08T08:09:04;100091.19;;;19.10;53.33
33554;BME280;19885;42.208;24.952;2023-05-08T08:11:29;100095.56;;;19.11;53.39
33554;BME280;19885;42.208;24.952;2023-05-08T08:13:55;100035.72;;;19.10;52.92
33554;BME280;19885;42.208;24.952;2023-05-08T08:16:20;100082.03;;;19.58;51.54
33554;BME280;19885;42.208;24.952;2023-05-08T08:18:46;100078.19;;;19.38;55.97
33554;BME280;19885;42.208;24.952;2023-05-08T08:21:11;100076.94;;;19.52;53.55
33554;BME280;19885;42.208;24.952;2023-05-08T08:23:37;100080.56;;;19.48;51.77
33554;BME280;19885;42.208;24.952;2023-05-08T08:26:02;100054.69;;;19.59;50.92
33554;BME280;19885;42.208;24.952;2023-05-08T08:28:28;100063.03;;;19.76;51.53
33554;BME280;19885;42.208;24.952;2023-05-08T08:30:53;100068.00;;;19.88;51.97
33554;BME280;19885;42.208;24.952;2023-05-08T08:33:19;100009.38;;;19.41;50.53
33554;BME280;19885;42.208;24.952;2023-05-08T08:35:45;100063.53;;;19.90;51.53
33554;BME280;19885;42.208;24.952;2023-05-08T08:38:10;100056.22;;;19.68;52.42
33554;BME280;19885;42.208;24.952;2023-05-08T08:40:40;100016.78;;;19.60;51.66
33554;BME280;19885;42.208;24.952;2023-05-08T08:43:06;100050.31;;;19.58;50.69
33554;BME280;19885;42.208;24.952;2023-05-08T08:45:31;100003.63;;;19.57;51.68
33554;BME280;19885;42.208;24.952;2023-05-08T08:48:00;100047.78;;;20.17;50.56
33554;BME280;19885;42.208;24.952;2023-05-08T08:50:30;100037.81;;;20.26;49.06
33554;BME280;19885;42.208;24.952;2023-05-08T08:53:00;100044.72;;;20.01;47.13
33554;BME280;19885;42.208;24.952;2023-05-08T08:55:32;100039.16;;;19.79;49.16
33554;BME280;19885;42.208;24.952;2023-05-08T08:58:32;100045.19;;;20.44;50.92
33554;BME280;19885;42.208;24.952;2023-05-08T09:00:59;100039.34;;;20.63;49.80
33554;BME280;19885;42.208;24.952;2023-05-08T09:03:29;100030.03;;;20.77;49.22
33554;BME280;19885;42.208;24.952;2023-05-08T09:05:58;100022.09;;;20.77;48.71
33554;BME280;19885;42.208;24.952;2023-05-08T09:08:25;100032.22;;;20.65;48.75
33554;BME280;19885;42.208;24.952;2023-05-08T09:10:52;100033.63;;;21.02;48.98
33554;BME280;19885;42.208;24.952;2023-05-08T09:13:19;99973.81;;;20.69;50.06
33554;BME280;19885;42.208;24.952;2023-05-08T09:15:44;100007.66;;;20.87;47.79
33554;BME280;19885;42.208;24.952;2023-05-08T09:18:10;100014.50;;;20.93;48.25
33554;BME280;19885;42.208;24.952;2023-05-08T09:20:36;100003.81;;;20.96;51.77
33554;BME280;19885;42.208;24.952;2023-05-08T09:23:05;100005.25;;;21.32;49.89
33554;BME280;19885;42.208;24.952;2023-05-08T09:25:43;100010.34;;;21.38;48.77
33554;BME280;19885;42.208;24.952;2023-05-08T09:28:23;100005.75;;;21.43;49.66
33554;BME280;19885;42.208;24.952;2023-05-08T09:30:54;100007.81;;;21.60;50.37
33554;BME280;19885;42.208;24.952;2023-05-08T09:33:21;99994.31;;;21.41;47.19
33554;BME280;19885;42.208;24.952;2023-05-08T09:35:47;99983.97;;;21.83;50.10
33554;BME280;19885;42.208;24.952;2023-05-08T09:38:32;99984.66;;;21.88;50.85
33554;BME280;19885;42.208;24.952;2023-05-08T09:41:11;99983.13;;;22.06;47.72
33554;BME280;19885;42.208;24.952;2023-05-08T09:43:40;99978.78;;;22.03;48.24
33554;BME280;19885;42.208;24.952;2023-05-08T09:46:19;99973.69;;;21.97;47.81
33554;BME280;19885;42.208;24.952;2023-05-08T09:48:49;99973.59;;;22.00;46.18
33554;BME280;19885;42.208;24.952;2023-05-08T09:51:15;99968.53;;;21.69;47.69
33554;BME280;19885;42.208;24.952;2023-05-08T09:53:40;99949.25;;;21.89;49.18
33554;BME280;19885;42.208;24.952;2023-05-08T09:56:06;99949.72;;;22.22;46.38
33554;BME280;19885;42.208;24.952;2023-05-08T09:58:43;99958.44;;;22.25;51.09
33554;BME280;19885;42.208;24.952;2023-05-08T10:01:28;99945.19;;;22.02;45.41
33554;BME280;19885;42.208;24.952;2023-05-08T10:03:53;99946.44;;;22.15;49.65
33554;BME280;19885;42.208;24.952;2023-05-08T10:06:19;99940.72;;;22.26;49.80
33554;BME280;19885;42.208;24.952;2023-05-08T10:08:45;99872.97;;;21.94;49.35
33554;BME280;19885;42.208;24.952;2023-05-08T10:11:18;99939.00;;;22.46;47.22
33554;BME280;19885;42.208;24.952;2023-05-08T10:13:44;99936.25;;;22.71;48.91
33554;BME280;19885;42.208;24.952;2023-05-08T10:16:14;99930.97;;;22.69;46.92
33554;BME280;19885;42.208;24.952;2023-05-08T10:18:46;99928.31;;;22.69;48.35
33554;BME280;19885;42.208;24.952;2023-05-08T10:21:13;99929.97;;;22.94;48.28
33554;BME280;19885;42.208;24.952;2023-05-08T10:23:40;99870.63;;;22.30;44.35
33554;BME280;19885;42.208;24.952;2023-05-08T10:26:11;99924.22;;;22.83;51.19
33554;BME280;19885;42.208;24.952;2023-05-08T10:29:05;99890.00;;;22.95;49.95
33554;BME280;19885;42.208;24.952;2023-05-08T10:31:34;99918.00;;;23.44;44.88
33554;BME280;19885;42.208;24.952;2023-05-08T10:34:01;99910.53;;;23.52;47.14
33554;BME280;19885;42.208;24.952;2023-05-08T10:36:27;99916.16;;;23.46;46.52
33554;BME280;19885;42.208;24.952;2023-05-08T10:38:56;99910.06;;;23.42;46.42
33554;BME280;19885;42.208;24.952;2023-05-08T10:41:22;99904.66;;;23.64;48.70
33554;BME280;19885;42.208;24.952;2023-05-08T10:43:49;99898.31;;;23.85;50.26
33554;BME280;19885;42.208;24.952;2023-05-08T10:46:49;99897.63;;;24.00;47.52
33554;BME280;19885;42.208;24.952;2023-05-08T10:55:15;99888.56;;;24.23;45.73
33554;BME280;19885;42.208;24.952;2023-05-08T11:00:32;99890.59;;;24.35;51.49
33554;BME280;19885;42.208;24.952;2023-05-08T11:03:23;99889.81;;;24.33;45.41
33554;BME280;19885;42.208;24.952;2023-05-08T11:05:50;99891.47;;;24.36;44.16
33554;BME280;19885;42.208;24.952;2023-05-08T11:08:17;99879.50;;;24.08;45.04
33554;BME280;19885;42.208;24.952;2023-05-08T11:13:37;99838.78;;;23.51;46.50
33554;BME280;19885;42.208;24.952;2023-05-08T11:16:03;99873.56;;;23.65;47.95
33554;BME280;19885;42.208;24.952;2023-05-08T11:18:31;99877.72;;;23.52;46.49
33554;BME280;19885;42.208;24.952;2023-05-08T11:20:57;99871.44;;;23.91;45.66
33554;BME280;19885;42.208;24.952;2023-05-08T11:23:30;99847.72;;;23.85;43.42
33554;BME280;19885;42.208;24.952;2023-05-08T11:26:03;99874.50;;;24.20;43.80
33554;BME280;19885;42.208;24.952;2023-05-08T11:29:16;99866.66;;;23.98;45.44
33554;BME280;19885;42.208;24.952;2023-05-08T11:31:22;99877.25;;;24.18;46.89
33554;BME280;19885;42.208;24.952;2023-05-08T11:33:48;99831.09;;;23.99;45.19
33554;BME280;19885;42.208;24.952;2023-05-08T11:36:15;99860.69;;;24.47;44.39
33554;BME280;19885;42.208;24.952;2023-05-08T11:38:43;99814.66;;;24.27;45.01
33554;BME280;19885;42.208;24.952;2023-05-08T11:41:10;99860.22;;;24.56;43.05
33554;BME280;19885;42.208;24.952;2023-05-08T11:46:16;99847.75;;;25.08;46.66
33554;BME280;19885;42.208;24.952;2023-05-08T11:48:42;99836.50;;;24.69;47.94
33554;BME280;19885;42.208;24.952;2023-05-08T11:51:08;99837.03;;;24.93;45.05
33554;BME280;19885;42.208;24.952;2023-05-08T11:53:34;99837.91;;;24.93;44.68
33554;BME280;19885;42.208;24.952;2023-05-08T11:56:00;99844.97;;;24.94;45.51
33554;BME280;19885;42.208;24.952;2023-05-08T11:58:26;99838.66;;;24.61;45.12
33554;BME280;19885;42.208;24.952;2023-05-08T12:00:52;99843.09;;;24.79;47.74
33554;BME280;19885;42.208;24.952;2023-05-08T12:03:23;99848.91;;;25.37;44.63
33554;BME280;19885;42.208;24.952;2023-05-08T12:05:49;99840.53;;;25.10;42.79
33554;BME280;19885;42.208;24.952;2023-05-08T12:08:16;99831.13;;;24.52;42.93
33554;BME280;19885;42.208;24.952;2023-05-08T12:13:21;99820.81;;;24.46;44.93
33554;BME280;19885;42.208;24.952;2023-05-08T12:15:49;99815.06;;;24.70;44.28
33554;BME280;19885;42.208;24.952;2023-05-08T12:18:15;99808.38;;;24.81;43.78
33554;BME280;19885;42.208;24.952;2023-05-08T12:20:42;99804.50;;;24.86;43.87
33554;BME280;19885;42.208;24.952;2023-05-08T12:23:08;99806.97;;;25.06;43.99
33554;BME280;19885;42.208;24.952;2023-05-08T12:25:38;99802.41;;;25.08;42.99
33554;BME280;19885;42.208;24.952;2023-05-08T12:28:08;99799.78;;;25.24;47.11
33554;BME280;19885;42.208;24.952;2023-05-08T12:30:34;99778.63;;;24.88;44.83
33554;BME280;19885;42.208;24.952;2023-05-08T12:33:01;99801.59;;;25.23;45.89
33554;BME280;19885;42.208;24.952;2023-05-08T12:35:28;99791.75;;;25.08;46.65
33554;BME280;19885;42.208;24.952;2023-05-08T12:37:59;99793.66;;;24.72;45.46
33554;BME280;19885;42.208;24.952;2023-05-08T12:40:27;99761.84;;;24.18;42.75
33554;BME280;19885;42.208;24.952;2023-05-08T12:42:53;99741.97;;;24.07;44.99
33554;BME280;19885;42.208;24.952;2023-05-08T12:45:29;99789.44;;;24.34;43.05
33554;BME280;19885;42.208;24.952;2023-05-08T12:48:02;99730.66;;;24.37;45.86
33554;BME280;19885;42.208;24.952;2023-05-08T12:50:27;99772.28;;;25.06;47.02
33554;BME280;19885;42.208;24.952;2023-05-08T12:53:04;99780.06;;;24.78;43.85
33554;BME280;19885;42.208;24.952;2023-05-08T12:55:31;99778.47;;;25.39;45.35
33554;BME280;19885;42.208;24.952;2023-05-08T12:58:08;99778.16;;;25.61;45.59
33554;BME280;19885;42.208;24.952;2023-05-08T13:00:48;99776.78;;;25.54;45.40
33554;BME280;19885;42.208;24.952;2023-05-08T13:03:27;99779.19;;;25.59;46.98
33554;BME280;19885;42.208;24.952;2023-05-08T13:05:57;99777.50;;;25.58;44.23
33554;BME280;19885;42.208;24.952;2023-05-08T13:08:35;99786.13;;;24.97;42.34
33554;BME280;19885;42.208;24.952;2023-05-08T13:11:03;99739.97;;;24.79;45.61
33554;BME280;19885;42.208;24.952;2023-05-08T13:13:31;99777.97;;;24.83;43.09
33554;BME280;19885;42.208;24.952;2023-05-08T13:15:57;99776.13;;;25.33;42.09
33554;BME280;19885;42.208;24.952;2023-05-08T13:18:26;99775.91;;;25.54;44.38
33554;BME280;19885;42.208;24.952;2023-05-08T13:20:53;99783.66;;;25.74;43.27
33554;BME280;19885;42.208;24.952;2023-05-08T13:23:19;99759.78;;;24.91;40.42
33554;BME280;19885;42.208;24.952;2023-05-08T13:25:45;99787.56;;;25.35;43.79
33554;BME280;19885;42.208;24.952;2023-05-08T13:28:10;99787.63;;;25.51;41.71